Time,TemperatureF,DewpointF,PressureIn,WindDirection,WindDirectionDegrees,WindSpeedMPH,WindSpeedGustMPH,Humidity,HourlyPrecipIn,Conditions,Clouds,dailyrainin,SoftwareType,DateUTC
2013-06-24 11:00:00,76.6,71.7,30.12,NNW,347,0.0,3.0,85,0.00,,,0.00,Wunderground v.1.15,2013-06-24 15:00:00,
2013-06-24 11:03:00,76.8,71.6,30.12,NNW,348,0.0,3.0,84,0.00,,,0.00,Wunderground v.1.15,2013-06-24 15:03:00,
2013-06-24 11:05:00,76.9,71.3,30.12,NW,313,0.0,3.0,83,0.00,,,0.00,Wunderground v.1.15,2013-06-24 15:05:00,
2013-06-24 11:07:00,77.1,71.9,30.12,NW,313,0.0,3.0,84,0.00,,,0.00,Wunderground v.1.15,2013-06-24 15:07:00,
2013-06-24 11:08:00,77.2,72.0,30.12,NW,313,0.0,3.0,84,0.00,,,0.00,Wunderground v.1.15,2013-06-24 15:08:00,
2013-06-24 11:10:00,77.5,72.3,30.12,NW,315,0.0,3.0,84,0.00,,,0.00,Wunderground v.1.15,2013-06-24 15:10:00,
2013-06-24 11:11:00,77.6,72.0,30.12,NW,317,0.0,3.0,83,0.00,,,0.00,Wunderground v.1.15,2013-06-24 15:11:00,
2013-06-24 11:13:00,77.8,72.6,30.12,NW,319,0.0,5.0,84,0.00,,,0.00,Wunderground v.1.15,2013-06-24 15:13:00,
2013-06-24 11:17:00,78.0,72.8,30.12,NNW,334,0.0,5.0,84,0.00,,,0.00,Wunderground v.1.15,2013-06-24 15:17:00,
2013-06-24 11:20:00,78.3,73.4,30.12,NNW,334,0.0,5.0,85,0.00,,,0.00,Wunderground v.1.15,2013-06-24 15:20:00,
2013-06-24 11:21:00,78.4,73.2,30.12,NW,309,0.0,5.0,84,0.00,,,0.00,Wunderground v.1.15,2013-06-24 15:21:00,
2013-06-24 11:22:00,78.5,72.5,30.12,NW,307,0.0,5.0,82,0.00,,,0.00,Wunderground v.1.15,2013-06-24 15:22:00,
2013-06-24 11:26:00,78.5,71.8,30.11,WNW,301,1.0,5.0,80,0.00,,,0.00,Wunderground v.1.15,2013-06-24 15:26:00,
2013-06-24 11:27:00,78.5,71.8,30.12,WNW,300,1.0,5.0,80,0.00,,,0.00,Wunderground v.1.15,2013-06-24 15:27:00,
2013-06-24 11:30:00,78.5,72.2,30.12,WNW,297,1.0,1.0,81,0.00,,,0.00,Wunderground v.1.15,2013-06-24 15:30:00,
2013-06-24 11:31:00,78.6,72.6,30.11,WNW,296,1.0,5.0,82,0.00,,,0.00,Wunderground v.1.15,2013-06-24 15:31:00,
2013-06-24 11:32:00,78.6,72.3,30.12,WNW,296,0.0,5.0,81,0.00,,,0.00,Wunderground v.1.15,2013-06-24 15:32:00,
2013-06-24 11:33:00,78.7,72.4,30.12,WNW,295,0.0,5.0,81,0.00,,,0.00,Wunderground v.1.15,2013-06-24 15:33:00,
2013-06-24 11:37:00,78.7,72.0,30.12,NW,318,0.0,5.0,80,0.00,,,0.00,Wunderground v.1.15,2013-06-24 15:37:00,
2013-06-24 11:38:00,78.7,72.4,30.12,NNW,330,0.0,5.0,81,0.00,,,0.00,Wunderground v.1.15,2013-06-24 15:38:00,
2013-06-24 11:42:00,78.9,72.2,30.11,WNW,301,1.0,5.0,80,0.00,,,0.00,Wunderground v.1.15,2013-06-24 15:42:00,
2013-06-24 11:44:00,78.9,71.8,30.11,WNW,288,1.0,5.0,79,0.00,,,0.00,Wunderground v.1.15,2013-06-24 15:44:00,
2013-06-24 11:49:00,78.9,71.8,30.12,NNW,333,0.0,5.0,79,0.00,,,0.00,Wunderground v.1.15,2013-06-24 15:49:00,
2013-06-24 11:51:00,79.0,72.3,30.12,WNW,296,0.0,4.0,80,0.00,,,0.00,Wunderground v.1.15,2013-06-24 15:51:00,
2013-06-24 11:54:00,79.1,72.0,30.12,WNW,295,0.0,4.0,79,0.00,,,0.00,Wunderground v.1.15,2013-06-24 15:54:00,
2013-06-24 11:55:00,79.1,71.6,30.11,WNW,295,0.0,4.0,78,0.00,,,0.00,Wunderground v.1.15,2013-06-24 15:55:00,
2013-06-24 11:57:00,79.1,71.6,30.11,WNW,294,0.0,4.0,78,0.00,,,0.00,Wunderground v.1.15,2013-06-24 15:57:00,
2013-06-24 11:58:00,79.2,71.7,30.11,WNW,293,0.0,4.0,78,0.00,,,0.00,Wunderground v.1.15,2013-06-24 15:58:00,
2013-06-24 12:00:00,79.2,72.1,30.11,WNW,293,0.0,4.0,79,0.00,,,0.00,Wunderground v.1.15,2013-06-24 16:00:00,
2013-06-24 12:01:00,79.2,71.7,30.11,WNW,292,0.0,4.0,78,0.00,,,0.00,Wunderground v.1.15,2013-06-24 16:01:00,
2013-06-24 12:03:00,79.3,72.2,30.11,WNW,292,0.0,4.0,79,0.00,,,0.00,Wunderground v.1.15,2013-06-24 16:03:00,
2013-06-24 12:06:00,79.6,72.5,30.11,WNW,296,0.0,4.0,79,0.00,,,0.00,Wunderground v.1.15,2013-06-24 16:06:00,
2013-06-24 12:07:00,79.8,73.1,30.11,NW,321,0.0,4.0,80,0.00,,,0.00,Wunderground v.1.15,2013-06-24 16:07:00,
2013-06-24 12:09:00,80.0,73.3,30.11,NW,308,0.0,4.0,80,0.00,,,0.00,Wunderground v.1.15,2013-06-24 16:09:00,
2013-06-24 12:11:00,80.1,72.6,30.11,NW,307,0.0,4.0,78,0.00,,,0.00,Wunderground v.1.15,2013-06-24 16:11:00,
2013-06-24 12:15:00,80.2,72.3,30.11,NW,304,1.0,6.0,77,0.00,,,0.00,Wunderground v.1.15,2013-06-24 16:15:00,
2013-06-24 12:16:00,80.2,72.7,30.11,WNW,303,1.0,6.0,78,0.00,,,0.00,Wunderground v.1.15,2013-06-24 16:16:00,
2013-06-24 12:19:00,80.4,72.9,30.11,NW,322,1.0,6.0,78,0.00,,,0.00,Wunderground v.1.15,2013-06-24 16:19:00,
2013-06-24 12:21:00,80.5,73.0,30.11,WNW,294,1.0,4.0,78,0.00,,,0.00,Wunderground v.1.15,2013-06-24 16:21:00,
2013-06-24 12:25:00,80.8,73.3,30.11,NW,321,1.0,4.0,78,0.00,,,0.00,Wunderground v.1.15,2013-06-24 16:25:00,
2013-06-24 12:26:00,80.8,72.5,30.11,NW,322,1.0,4.0,76,0.00,,,0.00,Wunderground v.1.15,2013-06-24 16:26:00,
2013-06-24 12:31:00,81.1,74.0,30.10,WNW,288,1.0,4.0,79,0.00,,,0.00,Wunderground v.1.15,2013-06-24 16:31:00,
2013-06-24 12:32:00,81.1,72.8,30.10,West,278,1.0,4.0,76,0.00,,,0.00,Wunderground v.1.15,2013-06-24 16:32:00,
2013-06-24 12:33:00,81.1,72.0,30.10,WNW,288,1.0,4.0,74,0.00,,,0.00,Wunderground v.1.15,2013-06-24 16:33:00,
2013-06-24 12:36:00,81.1,72.4,30.10,NW,317,1.0,4.0,75,0.00,,,0.00,Wunderground v.1.15,2013-06-24 16:36:00,
2013-06-24 12:38:00,81.1,72.8,30.10,NW,304,1.0,4.0,76,0.00,,,0.00,Wunderground v.1.15,2013-06-24 16:38:00,
2013-06-24 12:44:00,81.2,72.5,30.10,NNW,338,0.0,6.0,75,0.00,,,0.00,Wunderground v.1.15,2013-06-24 16:44:00,
2013-06-24 12:46:00,81.2,72.1,30.10,NW,311,0.0,6.0,74,0.00,,,0.00,Wunderground v.1.15,2013-06-24 16:46:00,
2013-06-24 12:48:00,81.3,72.6,30.10,NNW,331,1.0,6.0,75,0.00,,,0.00,Wunderground v.1.15,2013-06-24 16:48:00,
2013-06-24 12:49:00,81.3,72.6,30.10,NW,323,1.0,6.0,75,0.00,,,0.00,Wunderground v.1.15,2013-06-24 16:49:00,
2013-06-24 12:51:00,81.3,72.2,30.10,WNW,296,1.0,6.0,74,0.00,,,0.00,Wunderground v.1.15,2013-06-24 16:51:00,
2013-06-24 12:55:00,81.6,72.9,30.09,WNW,298,1.0,6.0,75,0.00,,,0.00,Wunderground v.1.15,2013-06-24 16:55:00,
2013-06-24 12:58:00,81.6,72.5,30.09,NNW,348,1.0,6.0,74,0.00,,,0.00,Wunderground v.1.15,2013-06-24 16:58:00,
2013-06-24 13:00:00,81.7,72.2,30.09,NW,311,1.0,1.0,73,0.00,,,0.00,Wunderground v.1.15,2013-06-24 17:00:00,
2013-06-24 13:02:00,81.7,72.6,30.09,NW,307,1.0,6.0,74,0.00,,,0.00,Wunderground v.1.15,2013-06-24 17:02:00,
2013-06-24 13:05:00,81.7,71.8,30.09,West,279,1.0,6.0,72,0.00,,,0.00,Wunderground v.1.15,2013-06-24 17:05:00,
2013-06-24 13:07:00,81.6,71.7,30.09,West,278,1.0,6.0,72,0.00,,,0.00,Wunderground v.1.15,2013-06-24 17:07:00,
2013-06-24 13:08:00,81.5,71.6,30.09,West,277,0.0,6.0,72,0.00,,,0.00,Wunderground v.1.15,2013-06-24 17:08:00,
2013-06-24 13:09:00,81.5,71.6,30.09,West,277,0.0,6.0,72,0.00,,,0.00,Wunderground v.1.15,2013-06-24 17:09:00,
2013-06-24 13:10:00,81.5,71.6,30.09,West,277,0.0,6.0,72,0.00,,,0.00,Wunderground v.1.15,2013-06-24 17:10:00,
2013-06-24 13:14:00,81.6,71.7,30.09,NW,317,0.0,7.0,72,0.00,,,0.00,Wunderground v.1.15,2013-06-24 17:14:00,
2013-06-24 13:15:00,81.6,72.1,30.09,NW,317,0.0,7.0,73,0.00,,,0.00,Wunderground v.1.15,2013-06-24 17:15:00,
2013-06-24 13:16:00,81.7,71.4,30.09,WNW,302,0.0,7.0,71,0.00,,,0.00,Wunderground v.1.15,2013-06-24 17:16:00,
2013-06-24 13:17:00,81.7,72.2,30.09,NW,322,0.0,7.0,73,0.00,,,0.00,Wunderground v.1.15,2013-06-24 17:17:00,
2013-06-24 13:22:00,82.0,71.7,30.08,NW,312,0.0,7.0,71,0.00,,,0.00,Wunderground v.1.15,2013-06-24 17:22:00,
2013-06-24 13:23:00,82.0,72.5,30.08,NW,312,0.0,7.0,73,0.00,,,0.00,Wunderground v.1.15,2013-06-24 17:23:00,
2013-06-24 13:25:00,82.1,71.8,30.08,NW,311,0.0,7.0,71,0.00,,,0.00,Wunderground v.1.15,2013-06-24 17:25:00,
2013-06-24 13:29:00,82.3,72.8,30.08,NNW,330,0.0,7.0,73,0.00,,,0.00,Wunderground v.1.15,2013-06-24 17:29:00,
2013-06-24 13:30:00,82.4,72.5,30.08,NNW,329,0.0,7.0,72,0.00,,,0.00,Wunderground v.1.15,2013-06-24 17:30:00,
2013-06-24 13:31:00,82.4,72.5,30.08,NNW,329,0.0,7.0,72,0.00,,,0.00,Wunderground v.1.15,2013-06-24 17:31:00,
2013-06-24 13:33:00,82.5,72.1,30.08,NW,325,0.0,7.0,71,0.00,,,0.00,Wunderground v.1.15,2013-06-24 17:33:00,
2013-06-24 13:37:00,82.8,72.8,30.07,NW,321,0.0,7.0,72,0.00,,,0.00,Wunderground v.1.15,2013-06-24 17:37:00,
2013-06-24 13:43:00,83.0,72.6,30.07,NW,322,0.0,7.0,71,0.00,,,0.00,Wunderground v.1.15,2013-06-24 17:43:00,
2013-06-24 13:44:00,83.0,72.6,30.07,NNW,327,0.0,7.0,71,0.00,,,0.00,Wunderground v.1.15,2013-06-24 17:44:00,
2013-06-24 13:47:00,83.1,73.5,30.07,NW,319,0.0,7.0,73,0.00,,,0.00,Wunderground v.1.15,2013-06-24 17:47:00,
2013-06-24 13:49:00,83.3,73.7,30.07,NW,317,0.0,7.0,73,0.00,,,0.00,Wunderground v.1.15,2013-06-24 17:49:00,
2013-06-24 13:52:00,83.3,72.5,30.06,NW,317,0.0,5.0,70,0.00,,,0.00,Wunderground v.1.15,2013-06-24 17:52:00,
2013-06-24 13:55:00,83.4,73.8,30.07,WNW,282,0.0,5.0,73,0.00,,,0.00,Wunderground v.1.15,2013-06-24 17:55:00,
2013-06-24 13:59:00,83.2,71.5,30.07,West,280,0.0,5.0,68,0.00,,,0.00,Wunderground v.1.15,2013-06-24 17:59:00,
2013-06-24 14:00:00,83.2,72.8,30.07,West,279,0.0,5.0,71,0.00,,,0.00,Wunderground v.1.15,2013-06-24 18:00:00,
2013-06-24 15:05:00,79.4,71.6,30.04,WNW,296,0.0,5.0,77,0.00,,,0.00,Wunderground v.1.15,2013-06-24 19:05:00,
2013-06-24 15:06:00,79.3,71.5,30.04,WNW,297,0.0,5.0,77,0.00,,,0.00,Wunderground v.1.15,2013-06-24 19:06:00,
2013-06-24 15:09:00,78.8,72.1,30.05,WNW,296,0.0,4.0,80,0.79,,,0.02,Wunderground v.1.15,2013-06-24 19:09:00,
2013-06-24 15:10:00,78.4,72.4,30.06,WNW,296,0.0,4.0,82,0.63,,,0.03,Wunderground v.1.15,2013-06-24 19:10:00,
2013-06-24 15:11:00,78.1,72.5,30.06,WNW,297,0.0,4.0,83,0.63,,,0.04,Wunderground v.1.15,2013-06-24 19:11:00,
2013-06-24 15:19:00,75.1,72.0,30.06,SSW,194,0.0,1.0,90,0.38,,,0.12,Wunderground v.1.15,2013-06-24 19:19:00,
2013-06-24 15:21:00,74.3,71.2,30.05,SSW,194,0.0,2.0,90,0.21,,,0.13,Wunderground v.1.15,2013-06-24 19:21:00,
2013-06-24 15:25:00,73.7,70.9,30.05,SSW,202,0.0,2.0,91,0.12,,,0.13,Wunderground v.1.15,2013-06-24 19:25:00,
2013-06-24 15:26:00,73.6,70.8,30.05,SSW,202,0.0,2.0,91,0.10,,,0.13,Wunderground v.1.15,2013-06-24 19:26:00,
2013-06-24 15:28:00,73.7,71.2,30.04,SSW,201,0.0,1.0,92,0.07,,,0.13,Wunderground v.1.15,2013-06-24 19:28:00,
2013-06-24 15:32:00,73.7,70.6,30.04,SSE,161,0.0,1.0,90,0.05,,,0.13,Wunderground v.1.15,2013-06-24 19:32:00,
2013-06-24 15:34:00,73.9,71.4,30.04,SSE,161,0.0,1.0,92,0.04,,,0.13,Wunderground v.1.15,2013-06-24 19:34:00,
2013-06-24 15:38:00,74.1,71.0,30.05,SSE,161,0.0,1.0,90,0.00,,,0.13,Wunderground v.1.15,2013-06-24 19:38:00,
2013-06-24 15:40:00,74.0,70.2,30.05,SSE,161,0.0,1.0,88,0.00,,,0.13,Wunderground v.1.15,2013-06-24 19:40:00,
2013-06-24 15:41:00,74.0,70.2,30.05,SSE,161,0.0,1.0,88,0.00,,,0.13,Wunderground v.1.15,2013-06-24 19:41:00,
2013-06-24 15:46:00,74.8,71.7,30.05,SSE,161,0.0,3.0,90,0.00,,,0.13,Wunderground v.1.15,2013-06-24 19:46:00,
2013-06-24 15:47:00,74.9,72.1,30.05,SSE,161,0.0,3.0,91,0.00,,,0.13,Wunderground v.1.15,2013-06-24 19:47:00,
2013-06-24 15:49:00,75.2,71.7,30.05,SSE,161,0.0,3.0,89,0.00,,,0.13,Wunderground v.1.15,2013-06-24 19:49:00,
2013-06-24 15:50:00,75.3,72.2,30.05,SSE,161,0.0,3.0,90,0.00,,,0.13,Wunderground v.1.15,2013-06-24 19:50:00,
2013-06-24 15:52:00,75.5,72.0,30.05,ESE,117,0.0,3.0,89,0.00,,,0.13,Wunderground v.1.15,2013-06-24 19:52:00,
2013-06-24 15:55:00,75.3,71.5,30.05,ESE,117,0.0,3.0,88,0.00,,,0.13,Wunderground v.1.15,2013-06-24 19:55:00,
2013-06-24 16:12:00,72.5,70.0,30.04,ESE,117,0.0,3.0,92,0.00,,,0.13,Wunderground v.1.15,2013-06-24 20:12:00,
2013-06-24 16:13:00,72.4,69.9,30.04,ESE,117,0.0,3.0,92,0.00,,,0.13,Wunderground v.1.15,2013-06-24 20:13:00,
2013-06-24 16:14:00,72.3,69.8,30.04,ESE,117,0.0,3.0,92,0.00,,,0.13,Wunderground v.1.15,2013-06-24 20:14:00,
2013-06-24 16:17:00,71.9,69.4,30.05,ESE,117,0.0,3.0,92,0.00,,,0.13,Wunderground v.1.15,2013-06-24 20:17:00,
2013-06-24 16:19:00,71.6,69.2,30.06,West,267,0.0,5.0,92,0.00,,,0.13,Wunderground v.1.15,2013-06-24 20:19:00,
2013-06-24 16:21:00,71.2,68.8,30.07,West,267,1.0,5.0,92,0.00,,,0.13,Wunderground v.1.15,2013-06-24 20:21:00,
2013-06-24 16:22:00,70.7,67.6,30.07,West,271,1.0,2.0,90,0.00,,,0.13,Wunderground v.1.15,2013-06-24 20:22:00,
2013-06-24 16:25:00,69.9,66.8,30.07,WNW,301,1.0,2.0,90,0.00,,,0.13,Wunderground v.1.15,2013-06-24 20:25:00,
2013-06-24 16:26:00,69.7,67.0,30.06,WNW,301,1.0,2.0,91,0.00,,,0.13,Wunderground v.1.15,2013-06-24 20:26:00,
2013-06-24 16:27:00,69.5,66.8,30.06,WNW,301,1.0,2.0,91,0.00,,,0.13,Wunderground v.1.15,2013-06-24 20:27:00,
2013-06-24 16:29:00,69.0,66.3,30.07,WNW,286,1.0,3.0,91,0.00,,,0.13,Wunderground v.1.15,2013-06-24 20:29:00,
2013-06-24 16:32:00,68.4,66.0,30.06,West,277,1.0,1.0,92,0.00,,,0.13,Wunderground v.1.15,2013-06-24 20:32:00,
2013-06-24 16:33:00,68.3,65.9,30.06,West,277,0.0,1.0,92,0.00,,,0.13,Wunderground v.1.15,2013-06-24 20:33:00,
2013-06-24 16:35:00,68.1,66.0,30.06,West,275,0.0,1.0,93,0.00,,,0.13,Wunderground v.1.15,2013-06-24 20:35:00,
2013-06-24 16:37:00,67.9,65.8,30.06,West,275,0.0,1.0,93,0.00,,,0.13,Wunderground v.1.15,2013-06-24 20:37:00,
2013-06-24 16:40:00,67.7,65.6,30.06,West,275,0.0,1.0,93,0.00,,,0.13,Wunderground v.1.15,2013-06-24 20:40:00,
2013-06-24 16:41:00,67.7,65.6,30.06,West,276,0.0,1.0,93,0.00,,,0.13,Wunderground v.1.15,2013-06-24 20:41:00,
2013-06-24 16:43:00,67.6,65.8,30.05,WNW,288,0.0,7.0,94,0.00,,,0.13,Wunderground v.1.15,2013-06-24 20:43:00,
2013-06-24 16:47:00,67.5,65.7,30.05,WNW,289,0.0,7.0,94,0.00,,,0.13,Wunderground v.1.15,2013-06-24 20:47:00,
2013-06-24 16:49:00,67.6,65.8,30.05,WNW,289,0.0,7.0,94,0.00,,,0.13,Wunderground v.1.15,2013-06-24 20:49:00,
2013-06-24 16:50:00,67.5,65.7,30.05,WNW,289,0.0,7.0,94,0.00,,,0.13,Wunderground v.1.15,2013-06-24 20:50:00,
2013-06-24 16:52:00,67.6,65.8,30.04,WNW,288,0.0,7.0,94,0.00,,,0.13,Wunderground v.1.15,2013-06-24 20:52:00,
2013-06-24 16:55:00,67.7,66.2,30.04,WNW,289,0.0,7.0,95,0.00,,,0.13,Wunderground v.1.15,2013-06-24 20:55:00,
2013-06-24 16:56:00,67.8,66.0,30.04,WNW,289,0.0,7.0,94,0.00,,,0.13,Wunderground v.1.15,2013-06-24 20:56:00,
2013-06-24 16:58:00,67.9,66.4,30.04,WNW,288,0.0,7.0,95,0.00,,,0.13,Wunderground v.1.15,2013-06-24 20:58:00,
2013-06-24 16:59:00,67.9,66.4,30.04,WNW,288,0.0,7.0,95,0.00,,,0.13,Wunderground v.1.15,2013-06-24 20:59:00,
2013-06-24 17:00:00,67.9,66.4,30.04,WNW,289,0.0,7.0,95,0.00,,,0.13,Wunderground v.1.15,2013-06-24 21:00:00,
2013-06-24 17:01:00,68.0,66.5,30.04,WNW,289,0.0,7.0,95,0.00,,,0.13,Wunderground v.1.15,2013-06-24 21:01:00,
2013-06-24 17:06:00,68.3,66.8,30.04,WNW,288,0.0,7.0,95,0.00,,,0.13,Wunderground v.1.15,2013-06-24 21:06:00,
2013-06-24 17:08:00,68.4,66.6,30.04,WNW,289,0.0,7.0,94,0.00,,,0.13,Wunderground v.1.15,2013-06-24 21:08:00,
2013-06-24 17:09:00,68.5,66.7,30.04,WNW,288,0.0,7.0,94,0.00,,,0.13,Wunderground v.1.15,2013-06-24 21:09:00,
2013-06-24 17:12:00,68.8,67.0,30.04,WNW,288,0.0,7.0,94,0.00,,,0.13,Wunderground v.1.15,2013-06-24 21:12:00,
2013-06-24 17:15:00,69.0,67.2,30.04,WNW,288,0.0,7.0,94,0.00,,,0.13,Wunderground v.1.15,2013-06-24 21:15:00,
2013-06-24 17:18:00,69.3,67.2,30.04,WNW,288,0.0,7.0,93,0.00,,,0.13,Wunderground v.1.15,2013-06-24 21:18:00,
2013-06-24 17:19:00,69.3,67.2,30.03,WNW,289,0.0,7.0,93,0.00,,,0.13,Wunderground v.1.15,2013-06-24 21:19:00,
2013-06-24 17:20:00,69.4,67.6,30.04,WNW,288,0.0,4.0,94,0.00,,,0.13,Wunderground v.1.15,2013-06-24 21:20:00,
2013-06-24 17:22:00,69.5,67.7,30.04,WNW,289,0.0,4.0,94,0.00,,,0.13,Wunderground v.1.15,2013-06-24 21:22:00,
2013-06-24 17:24:00,69.6,67.8,30.03,WNW,289,0.0,4.0,94,0.00,,,0.13,Wunderground v.1.15,2013-06-24 21:24:00,
2013-06-24 17:25:00,69.6,67.5,30.03,WNW,289,0.0,4.0,93,0.00,,,0.13,Wunderground v.1.15,2013-06-24 21:25:00,
2013-06-24 17:28:00,69.8,67.7,30.03,WNW,290,0.0,4.0,93,0.00,,,0.13,Wunderground v.1.15,2013-06-24 21:28:00,
2013-06-24 17:29:00,69.8,67.7,30.03,WNW,289,0.0,4.0,93,0.00,,,0.13,Wunderground v.1.15,2013-06-24 21:29:00,
2013-06-24 17:31:00,69.8,67.7,30.03,WNW,288,0.0,4.0,93,0.00,,,0.13,Wunderground v.1.15,2013-06-24 21:31:00,
2013-06-24 17:34:00,70.0,67.9,30.03,WNW,292,0.0,4.0,93,0.00,,,0.13,Wunderground v.1.15,2013-06-24 21:34:00,
2013-06-24 17:35:00,70.1,68.3,30.03,WNW,291,0.0,4.0,94,0.00,,,0.13,Wunderground v.1.15,2013-06-24 21:35:00,
2013-06-24 17:36:00,70.1,68.3,30.03,WNW,292,0.0,4.0,94,0.00,,,0.13,Wunderground v.1.15,2013-06-24 21:36:00,
2013-06-24 17:39:00,70.4,68.3,30.03,WNW,291,0.0,4.0,93,0.00,,,0.13,Wunderground v.1.15,2013-06-24 21:39:00,
2013-06-24 17:42:00,70.9,69.1,30.02,WNW,291,0.0,4.0,94,0.00,,,0.13,Wunderground v.1.15,2013-06-24 21:42:00,
2013-06-24 17:43:00,71.1,69.0,30.02,WNW,291,0.0,4.0,93,0.00,,,0.13,Wunderground v.1.15,2013-06-24 21:43:00,
2013-06-24 17:45:00,71.3,68.9,30.02,NW,319,0.0,4.0,92,0.00,,,0.13,Wunderground v.1.15,2013-06-24 21:45:00,
2013-06-24 17:46:00,71.3,68.9,30.02,NW,319,0.0,4.0,92,0.00,,,0.13,Wunderground v.1.15,2013-06-24 21:46:00,
2013-06-24 17:48:00,71.7,69.3,30.02,NW,318,0.0,4.0,92,0.00,,,0.13,Wunderground v.1.15,2013-06-24 21:48:00,
2013-06-24 17:50:00,72.1,69.6,30.03,NW,318,0.0,0.0,92,0.00,,,0.13,Wunderground v.1.15,2013-06-24 21:50:00,
2013-06-24 17:51:00,72.2,69.7,30.03,NW,319,0.0,0.0,92,0.00,,,0.13,Wunderground v.1.15,2013-06-24 21:51:00,
2013-06-24 17:55:00,72.2,69.1,30.03,NW,318,0.0,0.0,90,0.00,,,0.13,Wunderground v.1.15,2013-06-24 21:55:00,
2013-06-24 17:56:00,72.3,69.2,30.03,NW,318,0.0,0.0,90,0.00,,,0.13,Wunderground v.1.15,2013-06-24 21:56:00,
2013-06-24 17:57:00,72.3,69.2,30.03,NW,318,0.0,0.0,90,0.00,,,0.13,Wunderground v.1.15,2013-06-24 21:57:00,
2013-06-24 18:01:00,72.4,69.0,30.03,NW,319,0.0,0.0,89,0.00,,,0.13,Wunderground v.1.15,2013-06-24 22:01:00,
2013-06-24 18:02:00,72.4,68.6,30.03,NW,319,0.0,0.0,88,0.00,,,0.13,Wunderground v.1.15,2013-06-24 22:02:00,
2013-06-24 18:03:00,72.5,69.1,30.02,NW,319,0.0,0.0,89,0.00,,,0.13,Wunderground v.1.15,2013-06-24 22:03:00,
2013-06-24 18:05:00,72.6,69.5,30.02,NW,319,0.0,0.0,90,0.00,,,0.13,Wunderground v.1.15,2013-06-24 22:05:00,
2013-06-24 18:07:00,72.7,69.3,30.02,NW,319,0.0,0.0,89,0.00,,,0.13,Wunderground v.1.15,2013-06-24 22:07:00,
2013-06-24 18:08:00,72.8,69.0,30.02,NW,319,0.0,0.0,88,0.00,,,0.13,Wunderground v.1.15,2013-06-24 22:08:00,
2013-06-24 18:10:00,72.8,68.7,30.02,NW,319,0.0,0.0,87,0.00,,,0.13,Wunderground v.1.15,2013-06-24 22:10:00,
2013-06-24 18:12:00,72.9,68.8,30.03,NW,319,0.0,0.0,87,0.00,,,0.13,Wunderground v.1.15,2013-06-24 22:12:00,
2013-06-24 18:13:00,73.0,68.9,30.03,NW,319,0.0,2.0,87,0.00,,,0.13,Wunderground v.1.15,2013-06-24 22:13:00,
2013-06-24 18:17:00,73.1,69.0,30.03,NW,319,0.0,2.0,87,0.00,,,0.13,Wunderground v.1.15,2013-06-24 22:17:00,
2013-06-24 18:18:00,73.3,69.5,30.03,NW,319,0.0,2.0,88,0.00,,,0.13,Wunderground v.1.15,2013-06-24 22:18:00,
2013-06-24 18:19:00,73.3,69.5,30.03,NW,319,0.0,2.0,88,0.00,,,0.13,Wunderground v.1.15,2013-06-24 22:19:00,
2013-06-24 18:24:00,73.2,68.4,30.03,NNW,345,0.0,2.0,85,0.00,,,0.13,Wunderground v.1.15,2013-06-24 22:24:00,
2013-06-24 18:28:00,73.5,69.4,30.03,NNW,346,0.0,2.0,87,0.00,,,0.13,Wunderground v.1.15,2013-06-24 22:28:00,
2013-06-24 18:30:00,73.5,69.4,30.03,NW,318,0.0,2.0,87,0.00,,,0.13,Wunderground v.1.15,2013-06-24 22:30:00,
2013-06-24 18:31:00,73.5,69.1,30.03,NW,318,0.0,2.0,86,0.00,,,0.13,Wunderground v.1.15,2013-06-24 22:31:00,
2013-06-24 18:36:00,73.3,68.5,30.03,WNW,288,0.0,2.0,85,0.00,,,0.13,Wunderground v.1.15,2013-06-24 22:36:00,
2013-06-24 18:37:00,73.2,68.8,30.03,WNW,286,0.0,2.0,86,0.00,,,0.13,Wunderground v.1.15,2013-06-24 22:37:00,
2013-06-24 18:38:00,73.1,68.3,30.03,WNW,286,0.0,2.0,85,0.00,,,0.13,Wunderground v.1.15,2013-06-24 22:38:00,
2013-06-24 18:39:00,73.1,68.3,30.03,WNW,286,0.0,2.0,85,0.00,,,0.13,Wunderground v.1.15,2013-06-24 22:39:00,
2013-06-24 18:43:00,73.2,69.4,30.03,WNW,286,0.0,2.0,88,0.00,,,0.13,Wunderground v.1.15,2013-06-24 22:43:00,
2013-06-24 18:46:00,73.1,69.3,30.03,WNW,286,0.0,2.0,88,0.00,,,0.13,Wunderground v.1.15,2013-06-24 22:46:00,
2013-06-24 18:51:00,73.0,69.2,30.03,WNW,286,0.0,1.0,88,0.00,,,0.13,Wunderground v.1.15,2013-06-24 22:51:00,
2013-06-24 18:52:00,73.0,69.2,30.02,WNW,286,0.0,1.0,88,0.00,,,0.13,Wunderground v.1.15,2013-06-24 22:52:00,
2013-06-24 18:53:00,73.0,69.2,30.02,WNW,286,0.0,1.0,88,0.00,,,0.13,Wunderground v.1.15,2013-06-24 22:53:00,
2013-06-24 18:55:00,73.0,69.2,30.02,WNW,286,0.0,1.0,88,0.00,,,0.13,Wunderground v.1.15,2013-06-24 22:55:00,
2013-06-24 18:57:00,73.0,69.2,30.02,WNW,286,0.0,1.0,88,0.00,,,0.13,Wunderground v.1.15,2013-06-24 22:57:00,
2013-06-24 18:59:00,73.0,69.2,30.03,WNW,286,0.0,1.0,88,0.00,,,0.13,Wunderground v.1.15,2013-06-24 22:59:00,
2013-06-24 19:01:00,72.8,69.0,30.03,WNW,285,0.0,1.0,88,0.00,,,0.13,Wunderground v.1.15,2013-06-24 23:01:00,
2013-06-24 19:02:00,72.8,69.0,30.03,WNW,285,0.0,1.0,88,0.00,,,0.13,Wunderground v.1.15,2013-06-24 23:02:00,
2013-06-24 19:04:00,72.8,69.0,30.02,WNW,285,0.0,1.0,88,0.00,,,0.13,Wunderground v.1.15,2013-06-24 23:04:00,
2013-06-24 19:06:00,72.7,68.9,30.02,WNW,284,0.0,1.0,88,0.00,,,0.13,Wunderground v.1.15,2013-06-24 23:06:00,
2013-06-24 19:08:00,72.8,69.0,30.02,WNW,285,0.0,1.0,88,0.00,,,0.13,Wunderground v.1.15,2013-06-24 23:08:00,
2013-06-24 19:09:00,72.8,69.0,30.02,WNW,285,0.0,1.0,88,0.00,,,0.13,Wunderground v.1.15,2013-06-24 23:09:00,
2013-06-24 19:11:00,72.8,69.0,30.02,WNW,285,0.0,1.0,88,0.00,,,0.13,Wunderground v.1.15,2013-06-24 23:11:00,
2013-06-24 19:15:00,72.9,69.5,30.02,WNW,284,0.0,1.0,89,0.00,,,0.13,Wunderground v.1.15,2013-06-24 23:15:00,
2013-06-24 19:16:00,72.9,69.5,30.02,WNW,285,0.0,1.0,89,0.00,,,0.13,Wunderground v.1.15,2013-06-24 23:16:00,
2013-06-24 19:17:00,73.0,69.6,30.02,WNW,285,0.0,1.0,89,0.00,,,0.13,Wunderground v.1.15,2013-06-24 23:17:00,
2013-06-24 19:21:00,73.0,69.2,30.02,WNW,286,0.0,1.0,88,0.00,,,0.13,Wunderground v.1.15,2013-06-24 23:21:00,
2013-06-24 19:23:00,73.0,69.2,30.02,WNW,286,0.0,1.0,88,0.00,,,0.13,Wunderground v.1.15,2013-06-24 23:23:00,
2013-06-24 19:24:00,73.1,69.3,30.02,WNW,285,0.0,1.0,88,0.00,,,0.13,Wunderground v.1.15,2013-06-24 23:24:00,
2013-06-24 19:27:00,73.1,69.7,30.02,WNW,286,0.0,1.0,89,0.00,,,0.13,Wunderground v.1.15,2013-06-24 23:27:00,
2013-06-24 19:30:00,73.1,69.7,30.02,WNW,286,0.0,1.0,89,0.00,,,0.13,Wunderground v.1.15,2013-06-24 23:30:00,
2013-06-24 19:32:00,73.1,69.7,30.02,WNW,286,0.0,1.0,89,0.00,,,0.13,Wunderground v.1.15,2013-06-24 23:32:00,
2013-06-24 19:33:00,73.0,69.6,30.02,WNW,286,0.0,1.0,89,0.00,,,0.13,Wunderground v.1.15,2013-06-24 23:33:00,
2013-06-24 19:37:00,72.8,69.4,30.02,WNW,286,0.0,1.0,89,0.00,,,0.13,Wunderground v.1.15,2013-06-24 23:37:00,
2013-06-24 19:39:00,72.7,69.3,30.02,WNW,286,0.0,1.0,89,0.00,,,0.13,Wunderground v.1.15,2013-06-24 23:39:00,
2013-06-24 19:41:00,72.6,69.2,30.02,WNW,286,0.0,1.0,89,0.00,,,0.13,Wunderground v.1.15,2013-06-24 23:41:00,
2013-06-24 19:44:00,72.4,69.0,30.02,WNW,286,0.0,1.0,89,0.00,,,0.13,Wunderground v.1.15,2013-06-24 23:44:00,
2013-06-24 19:46:00,72.3,69.2,30.02,WNW,286,0.0,1.0,90,0.00,,,0.13,Wunderground v.1.15,2013-06-24 23:46:00,
2013-06-24 19:47:00,72.2,68.8,30.02,WNW,286,0.0,1.0,89,0.00,,,0.13,Wunderground v.1.15,2013-06-24 23:47:00,
2013-06-24 19:51:00,71.9,68.8,30.02,WNW,286,0.0,0.0,90,0.00,,,0.13,Wunderground v.1.15,2013-06-24 23:51:00,
2013-06-24 19:53:00,71.7,68.6,30.02,WNW,286,0.0,0.0,90,0.00,,,0.13,Wunderground v.1.15,2013-06-24 23:53:00,
2013-06-24 19:56:00,71.5,68.4,30.02,WNW,286,0.0,0.0,90,0.00,,,0.13,Wunderground v.1.15,2013-06-24 23:56:00,
2013-06-24 19:57:00,71.5,68.4,30.02,WNW,286,0.0,0.0,90,0.00,,,0.13,Wunderground v.1.15,2013-06-24 23:57:00,
2013-06-24 20:20:00,70.5,67.7,30.02,WNW,286,0.0,0.0,91,0.00,,,0.13,Wunderground v.1.15,2013-06-25 00:20:00,
2013-06-24 20:21:00,70.5,67.7,30.02,WNW,286,0.0,0.0,91,0.00,,,0.13,Wunderground v.1.15,2013-06-25 00:21:00,
2013-06-24 20:23:00,70.4,67.6,30.02,WNW,286,0.0,0.0,91,0.00,,,0.13,Wunderground v.1.15,2013-06-25 00:23:00,
2013-06-24 20:26:00,70.3,67.5,30.02,WNW,286,0.0,0.0,91,0.00,,,0.13,Wunderground v.1.15,2013-06-25 00:26:00,
2013-06-24 20:29:00,70.1,67.3,30.02,WNW,286,0.0,0.0,91,0.00,,,0.13,Wunderground v.1.15,2013-06-25 00:29:00,
2013-06-24 20:33:00,69.9,67.5,30.02,WNW,286,0.0,0.0,92,0.00,,,0.13,Wunderground v.1.15,2013-06-25 00:33:00,
2013-06-24 20:34:00,69.9,67.5,30.02,WNW,286,0.0,0.0,92,0.00,,,0.13,Wunderground v.1.15,2013-06-25 00:34:00,
2013-06-24 20:37:00,69.8,67.4,30.02,WNW,286,0.0,0.0,92,0.00,,,0.13,Wunderground v.1.15,2013-06-25 00:37:00,
2013-06-24 20:39:00,69.7,67.3,30.02,WNW,286,0.0,0.0,92,0.00,,,0.13,Wunderground v.1.15,2013-06-25 00:39:00,
2013-06-24 20:40:00,69.7,67.3,30.02,WNW,286,0.0,0.0,92,0.00,,,0.13,Wunderground v.1.15,2013-06-25 00:40:00,
2013-06-24 20:44:00,69.4,67.0,30.02,WNW,286,0.0,0.0,92,0.00,,,0.13,Wunderground v.1.15,2013-06-25 00:44:00,
2013-06-24 22:31:00,68.2,67.0,30.04,WNW,286,0.0,0.0,96,0.00,,,0.13,Wunderground v.1.15,2013-06-25 02:31:00,
2013-06-24 22:32:00,68.2,67.0,30.04,WNW,286,0.0,0.0,96,0.00,,,0.13,Wunderground v.1.15,2013-06-25 02:32:00,
2013-06-24 22:33:00,68.2,67.0,30.04,WNW,286,0.0,0.0,96,0.00,,,0.13,Wunderground v.1.15,2013-06-25 02:33:00,
2013-06-24 22:36:00,68.4,67.2,30.04,WNW,286,0.0,0.0,96,0.00,,,0.13,Wunderground v.1.15,2013-06-25 02:36:00,
2013-06-24 22:38:00,68.4,67.2,30.04,WNW,286,0.0,0.0,96,0.00,,,0.13,Wunderground v.1.15,2013-06-25 02:38:00,
2013-06-24 22:40:00,68.4,67.2,30.04,WNW,286,0.0,0.0,96,0.00,,,0.13,Wunderground v.1.15,2013-06-25 02:40:00,
2013-06-24 22:41:00,68.4,67.2,30.04,WNW,286,0.0,0.0,96,0.00,,,0.13,Wunderground v.1.15,2013-06-25 02:41:00,
2013-06-24 22:44:00,68.6,67.7,30.04,WNW,286,0.0,0.0,97,0.00,,,0.13,Wunderground v.1.15,2013-06-25 02:44:00,
2013-06-24 22:45:00,68.6,67.7,30.04,WNW,286,0.0,0.0,97,0.00,,,0.13,Wunderground v.1.15,2013-06-25 02:45:00,
2013-06-24 22:49:00,68.6,67.7,30.04,WNW,286,0.0,0.0,97,0.00,,,0.13,Wunderground v.1.15,2013-06-25 02:49:00,
2013-06-24 22:50:00,68.6,67.7,30.04,WNW,286,0.0,0.0,97,0.00,,,0.13,Wunderground v.1.15,2013-06-25 02:50:00,
2013-06-24 22:51:00,68.6,67.7,30.04,WNW,286,0.0,0.0,97,0.00,,,0.13,Wunderground v.1.15,2013-06-25 02:51:00,
2013-06-24 22:52:00,68.6,67.7,30.04,WNW,286,0.0,0.0,97,0.00,,,0.13,Wunderground v.1.15,2013-06-25 02:52:00,
2013-06-24 22:54:00,68.6,67.7,30.04,WNW,286,0.0,0.0,97,0.00,,,0.13,Wunderground v.1.15,2013-06-25 02:54:00,
2013-06-24 22:57:00,68.7,67.8,30.04,WNW,286,0.0,0.0,97,0.00,,,0.13,Wunderground v.1.15,2013-06-25 02:57:00,
2013-06-24 23:00:00,68.8,67.9,30.04,WNW,286,0.0,0.0,97,0.00,,,0.13,Wunderground v.1.15,2013-06-25 03:00:00,
2013-06-24 23:02:00,68.9,68.0,30.04,WNW,286,0.0,0.0,97,0.00,,,0.13,Wunderground v.1.15,2013-06-25 03:02:00,
2013-06-24 23:06:00,68.8,67.9,30.04,WNW,286,0.0,0.0,97,0.00,,,0.13,Wunderground v.1.15,2013-06-25 03:06:00,
2013-06-24 23:07:00,68.8,67.9,30.04,WNW,286,0.0,0.0,97,0.00,,,0.13,Wunderground v.1.15,2013-06-25 03:07:00,
2013-06-24 23:11:00,68.8,67.9,30.04,WNW,286,0.0,0.0,97,0.00,,,0.13,Wunderground v.1.15,2013-06-25 03:11:00,
2013-06-24 23:12:00,68.7,67.8,30.04,WNW,286,0.0,0.0,97,0.00,,,0.13,Wunderground v.1.15,2013-06-25 03:12:00,
2013-06-24 23:13:00,68.7,67.8,30.04,WSW,240,0.0,0.0,97,0.00,,,0.13,Wunderground v.1.15,2013-06-25 03:13:00,
2013-06-24 23:16:00,68.7,67.8,30.04,WSW,240,0.0,0.0,97,0.00,,,0.13,Wunderground v.1.15,2013-06-25 03:16:00,
2013-06-24 23:18:00,68.7,67.8,30.04,WSW,240,0.0,0.0,97,0.00,,,0.13,Wunderground v.1.15,2013-06-25 03:18:00,
2013-06-24 23:23:00,68.6,67.7,30.04,WSW,240,0.0,0.0,97,0.00,,,0.13,Wunderground v.1.15,2013-06-25 03:23:00,
2013-06-24 23:26:00,68.6,67.7,30.04,WSW,240,0.0,0.0,97,0.00,,,0.13,Wunderground v.1.15,2013-06-25 03:26:00,
2013-06-24 23:29:00,68.6,67.7,30.04,WSW,240,0.0,0.0,97,0.00,,,0.13,Wunderground v.1.15,2013-06-25 03:29:00,
2013-06-24 23:31:00,68.6,67.7,30.04,WSW,240,0.0,0.0,97,0.00,,,0.13,Wunderground v.1.15,2013-06-25 03:31:00,
2013-06-24 23:33:00,68.6,67.7,30.04,WSW,240,0.0,0.0,97,0.00,,,0.13,Wunderground v.1.15,2013-06-25 03:33:00,
2013-06-24 23:37:00,68.6,67.7,30.03,WSW,240,0.0,0.0,97,0.00,,,0.13,Wunderground v.1.15,2013-06-25 03:37:00,
2013-06-24 23:39:00,68.6,67.7,30.04,WSW,240,0.0,0.0,97,0.00,,,0.13,Wunderground v.1.15,2013-06-25 03:39:00,
2013-06-24 23:42:00,68.6,67.7,30.03,WSW,240,0.0,0.0,97,0.00,,,0.13,Wunderground v.1.15,2013-06-25 03:42:00,
2013-06-24 23:45:00,68.5,67.6,30.04,WSW,240,0.0,1.0,97,0.00,,,0.13,Wunderground v.1.15,2013-06-25 03:45:00,
2013-06-24 23:47:00,68.5,67.6,30.03,WSW,240,0.0,1.0,97,0.00,,,0.13,Wunderground v.1.15,2013-06-25 03:47:00,
2013-06-24 23:49:00,68.6,67.7,30.03,WSW,240,0.0,1.0,97,0.00,,,0.13,Wunderground v.1.15,2013-06-25 03:49:00,
2013-06-24 23:50:00,68.6,67.7,30.03,WSW,240,0.0,1.0,97,0.00,,,0.13,Wunderground v.1.15,2013-06-25 03:50:00,
2013-06-24 23:54:00,68.6,67.7,30.03,WSW,240,0.0,1.0,97,0.00,,,0.13,Wunderground v.1.15,2013-06-25 03:54:00,
2013-06-24 23:56:00,68.6,67.7,30.03,NNE,13,0.0,2.0,97,0.00,,,0.13,Wunderground v.1.15,2013-06-25 03:56:00,
2013-06-24 23:57:00,68.7,67.8,30.03,NNE,13,0.0,2.0,97,0.00,,,0.13,Wunderground v.1.15,2013-06-25 03:57:00,
2013-06-24 23:59:00,68.8,67.9,30.03,NNE,13,0.0,2.0,97,0.00,,,0.13,Wunderground v.1.15,2013-06-25 03:59:00,